»·PEaware :: N4657 KSBA-L35

N4657 :: KSBA-L35

FLIGHT INFORMATION

Flight Status: Arrived
Operator: Privately registered:
United States
More flights under this callsign
Pilot: Daniel P. (20187)
Aircraft: PILATUS PC-12 EAGLE
(PC12)
More flights by this aircraft type
Origin: KSBA Santa Barbara Mun
United States
Destination: L35 Big Bear City
United States
More flights between these airports :: More routes between these airports
Route: +DEANO V186 PIRRO V210 POM V264 RAVON V8 ARRAN
File this flight plan on PilotEdge
Remarks:
Altitude:
(Current/Filed)
60ft
Speed:
(Current/Filed)
190kts
Departed: 16-Sep-18 01:14 PM
Arrived: 16-Sep-18 02:09 PM
Distance/Time
Traveled:
148nm/0:54
Distance/Time
To Go:
Arrived

Flight Plot

Page will automatically refresh every two minutes.

Flight plan parsing failed; only flown route is shown


Map Options




Map Legend


Flown Route
Filed Route
Departure Airport
Arrival Airport
Navaid (VOR, NDB)
Fix

Horizontal Profiles

Position Reports

Time Latitude Longitude Heading Altitude Ground
Speed
16-Sep-18 12:11 34.432033 -119.836127 340 14ft 0kts
16-Sep-18 12:12 34.432033 -119.836127 340 14ft 0kts
16-Sep-18 12:13 34.432033 -119.836127 340 14ft 0kts
16-Sep-18 12:14 34.432033 -119.836127 340 14ft 0kts
16-Sep-18 12:15 34.432033 -119.836127 340 14ft 0kts
16-Sep-18 12:16 34.432033 -119.836127 340 14ft 0kts
16-Sep-18 12:17 34.432033 -119.836127 340 14ft 0kts
16-Sep-18 12:18 34.432033 -119.836127 340 14ft 0kts
16-Sep-18 12:19 34.432033 -119.836127 340 14ft 0kts
16-Sep-18 12:20 34.432033 -119.836127 340 14ft 0kts
16-Sep-18 12:21 34.432033 -119.836127 340 14ft 0kts
16-Sep-18 12:22 34.432033 -119.836127 340 14ft 0kts
16-Sep-18 12:23 34.432033 -119.836127 341 14ft 0kts
16-Sep-18 12:24 34.432033 -119.836127 341 14ft 0kts
16-Sep-18 12:25 34.432033 -119.836127 341 14ft 0kts
16-Sep-18 12:26 34.432033 -119.836127 341 14ft 0kts
16-Sep-18 12:27 34.432033 -119.836127 341 14ft 0kts
16-Sep-18 12:28 34.432033 -119.836127 341 14ft 0kts
16-Sep-18 12:29 34.432033 -119.836127 340 14ft 0kts
16-Sep-18 12:30 34.432033 -119.836127 340 14ft 0kts
16-Sep-18 12:31 34.432033 -119.836127 340 14ft 0kts
16-Sep-18 12:32 34.432033 -119.836127 340 14ft 0kts
16-Sep-18 12:33 34.432033 -119.836127 340 14ft 0kts
16-Sep-18 12:34 34.432033 -119.836127 340 14ft 0kts
16-Sep-18 12:35 34.432033 -119.836127 340 14ft 0kts
16-Sep-18 12:36 34.432033 -119.836127 340 14ft 0kts
16-Sep-18 12:37 34.432033 -119.836127 340 14ft 0kts
16-Sep-18 12:38 34.432033 -119.836127 340 14ft 0kts
16-Sep-18 12:39 34.432033 -119.836127 340 14ft 0kts
16-Sep-18 12:40 34.432033 -119.836127 340 14ft 0kts
16-Sep-18 12:41 34.432033 -119.836127 340 14ft 0kts
16-Sep-18 12:42 34.432033 -119.836127 340 14ft 0kts
16-Sep-18 12:43 34.432033 -119.836127 340 14ft 0kts
16-Sep-18 12:44 34.432033 -119.836127 340 14ft 0kts
16-Sep-18 12:45 34.432033 -119.836127 340 14ft 0kts
16-Sep-18 12:46 34.432033 -119.836127 340 14ft 0kts
16-Sep-18 12:47 34.432033 -119.836127 340 14ft 0kts
16-Sep-18 12:48 34.432033 -119.836127 340 14ft 0kts
16-Sep-18 12:49 34.432033 -119.836127 340 14ft 0kts
16-Sep-18 12:50 34.432033 -119.836127 340 14ft 0kts
16-Sep-18 12:51 34.432033 -119.836127 340 14ft 0kts
16-Sep-18 12:52 34.432034 -119.836127 340 14ft 0kts
16-Sep-18 12:53 34.432034 -119.836127 340 14ft 0kts
16-Sep-18 12:54 34.432034 -119.836127 340 14ft 0kts
16-Sep-18 12:55 34.432034 -119.836127 340 14ft 0kts
16-Sep-18 12:56 34.432034 -119.836127 340 14ft 0kts
16-Sep-18 12:57 34.432034 -119.836127 340 14ft 0kts
16-Sep-18 12:58 34.432034 -119.836127 340 14ft 0kts
16-Sep-18 12:59 34.432034 -119.836127 340 14ft 0kts
16-Sep-18 13:00 34.432034 -119.836127 340 14ft 0kts
16-Sep-18 13:01 34.432034 -119.836127 340 14ft 0kts
16-Sep-18 13:02 34.432034 -119.836127 340 14ft 0kts
16-Sep-18 13:03 34.432034 -119.836127 340 14ft 0kts
16-Sep-18 13:04 34.432034 -119.836127 340 14ft 0kts
16-Sep-18 13:05 34.432034 -119.836127 340 14ft 0kts
16-Sep-18 13:06 34.432034 -119.836127 340 14ft 0kts
16-Sep-18 13:07 34.432034 -119.836127 340 14ft 0kts
16-Sep-18 13:08 34.432034 -119.836127 340 14ft 0kts
16-Sep-18 13:09 34.432034 -119.836127 340 14ft 0kts
16-Sep-18 13:10 34.432034 -119.836127 340 14ft 0kts
16-Sep-18 13:11 34.431671 -119.836550 246 14ft 10kts
16-Sep-18 13:12 34.430812 -119.839449 248 14ft 8kts
16-Sep-18 13:13 34.430715 -119.839723 246 14ft 0kts
16-Sep-18 13:14 34.430715 -119.839723 246 14ft 0kts
16-Sep-18 13:15 34.429565 -119.839985 166 14ft 35kts
16-Sep-18 13:16 34.401818 -119.831102 164 1088ft 122kts
16-Sep-18 13:17 34.369931 -119.820742 164 2336ft 155kts
16-Sep-18 13:18 34.338302 -119.793343 87 3663ft 185kts
16-Sep-18 13:19 34.340305 -119.737635 89 4885ft 197kts
16-Sep-18 13:20 34.339753 -119.671471 90 6266ft 202kts
16-Sep-18 13:21 34.338529 -119.601477 90 6867ft 221kts
16-Sep-18 13:22 34.337132 -119.526068 90 6866ft 228kts
16-Sep-18 13:23 34.335689 -119.449424 90 6866ft 229kts
16-Sep-18 13:24 34.334206 -119.372949 90 6866ft 229kts
16-Sep-18 13:25 34.332726 -119.298925 91 6866ft 229kts
16-Sep-18 13:26 34.331677 -119.222498 85 6868ft 229kts
16-Sep-18 13:27 34.337349 -119.146552 84 6866ft 229kts
16-Sep-18 13:28 34.343023 -119.070706 84 6939ft 228kts
16-Sep-18 13:29 34.348622 -118.994840 84 6939ft 229kts
16-Sep-18 13:30 34.354189 -118.918775 84 6939ft 229kts
16-Sep-18 13:31 34.344723 -118.844758 112 6939ft 229kts
16-Sep-18 13:32 34.320376 -118.773842 112 6939ft 229kts
16-Sep-18 13:33 34.296371 -118.703589 112 6939ft 229kts
16-Sep-18 13:34 34.272302 -118.633248 112 6939ft 229kts
16-Sep-18 13:35 34.248448 -118.563687 112 6939ft 229kts
16-Sep-18 13:36 34.224608 -118.494284 111 6939ft 229kts
16-Sep-18 13:37 34.203318 -118.424375 109 6939ft 229kts
16-Sep-18 13:38 34.182103 -118.354447 109 6939ft 229kts
16-Sep-18 13:39 34.161937 -118.288143 110 6939ft 229kts
16-Sep-18 13:40 34.140648 -118.218295 110 6939ft 229kts
16-Sep-18 13:41 34.119012 -118.147473 110 6939ft 229kts
16-Sep-18 13:42 34.101074 -118.088890 110 6939ft 229kts
16-Sep-18 13:43 34.076345 -118.008055 105 7112ft 222kts
16-Sep-18 13:44 34.076123 -117.948700 88 7776ft 209kts
16-Sep-18 13:45 34.077446 -117.868140 88 8698ft 207kts
16-Sep-18 13:46 34.078266 -117.808977 88 8941ft 223kts
16-Sep-18 13:47 34.051079 -117.742858 126 8939ft 232kts
16-Sep-18 13:48 34.016410 -117.678256 88 8950ft 233kts
16-Sep-18 13:49 34.060504 -117.624670 36 8939ft 234kts
16-Sep-18 13:50 34.104271 -117.571368 67 9294ft 222kts
16-Sep-18 13:51 34.135295 -117.509492 50 9993ft 215kts
16-Sep-18 13:52 34.172361 -117.453456 50 10688ft 214kts
16-Sep-18 13:53 34.210185 -117.396050 51 10940ft 228kts
16-Sep-18 13:54 34.243767 -117.331089 80 10940ft 235kts
16-Sep-18 13:55 34.251554 -117.252742 85 10939ft 236kts
16-Sep-18 13:56 34.256852 -117.173895 85 10939ft 236kts
16-Sep-18 13:57 34.261695 -117.101292 85 10935ft 195kts
16-Sep-18 13:58 34.265884 -117.039619 85 10938ft 177kts
16-Sep-18 13:59 34.262151 -116.981206 92 10476ft 190kts
16-Sep-18 14:00 34.262022 -116.920190 89 9610ft 174kts
16-Sep-18 14:01 34.262587 -116.863241 89 8405ft 166kts
16-Sep-18 14:02 34.263115 -116.811854 88 7910ft 129kts
16-Sep-18 14:03 34.263569 -116.767963 88 7904ft 132kts
16-Sep-18 14:04 34.263978 -116.722578 88 7904ft 137kts
16-Sep-18 14:05 34.264469 -116.675182 83 7902ft 142kts
16-Sep-18 14:06 34.287509 -116.668994 279 7908ft 126kts
16-Sep-18 14:07 34.272377 -116.707243 238 7904ft 129kts
16-Sep-18 14:08 34.264099 -116.748795 268 7905ft 133kts
16-Sep-18 14:09 34.264074 -116.794743 269 7766ft 130kts
16-Sep-18 14:10 34.263821 -116.832775 268 7107ft 103kts
16-Sep-18 14:11 34.263711 -116.856055 243 6752ft 8kts
16-Sep-18 14:12 34.263251 -116.854464 91 6752ft 12kts
16-Sep-18 14:13 34.262197 -116.853963 254 6752ft 1kts
16-Sep-18 14:14 34.262196 -116.853970 255 6752ft 0kts

Navigation Log

Ident Type
Flight plan parsing failed, navigation log unavailable